Time;durP1;ratioP1;P1;durP2;ratioP2;P2;SDS_P1;SDS_P2;PMS_P1;PMS_P2;Temp;Humidity;BMP_temperature;BMP_pressure;BME280_temperature;BME280_humidity;BME280_pressure;Samples;Min_cycle;Max_cycle;Signal;HPM_P1;HPM_P2
2022/03/06 02:26:38;;;;;;;42.70;15.43;;;;;;;-1.96;100.00;94245.91;4938060;29;20055;-95
2022/03/06 02:29:04;;;;;;;48.53;16.15;;;;;;;-1.91;100.00;94240.19;4954460;29;20046;-94
2022/03/06 02:31:29;;;;;;;41.40;15.32;;;;;;;-1.84;100.00;94251.28;4954695;29;20027;-95
2022/03/06 02:33:55;;;;;;;36.05;14.95;;;;;;;-1.81;100.00;94243.19;4938876;29;20032;-94
2022/03/06 02:36:20;;;;;;;39.25;14.80;;;;;;;-1.88;100.00;94253.44;4954621;29;20340;-95
2022/03/06 02:38:46;;;;;;;36.90;15.32;;;;;;;-1.97;100.00;94248.66;4938440;29;20452;-94
2022/03/06 02:41:11;;;;;;;32.42;13.45;;;;;;;-2.06;100.00;94250.59;4954705;29;20098;-94
2022/03/06 02:43:36;;;;;;;36.20;14.98;;;;;;;-2.01;100.00;94240.53;4954486;29;20142;-95
2022/03/06 02:46:08;;;;;;;34.80;14.98;;;;;;;-2.02;100.00;94244.91;4923085;29;20138;-95
2022/03/06 02:48:34;;;;;;;34.38;14.60;;;;;;;-2.05;100.00;94247.03;4923642;29;20117;-95
2022/03/06 02:51:00;;;;;;;28.67;13.70;;;;;;;-2.13;100.00;94241.09;4938452;29;20032;-95
2022/03/06 02:53:25;;;;;;;38.83;15.77;;;;;;;-2.21;100.00;94243.81;4938757;29;20075;-95
2022/03/06 02:55:51;;;;;;;35.55;14.18;;;;;;;-2.15;100.00;94255.09;4956856;28;20044;-95
2022/03/06 02:58:16;;;;;;;35.47;15.15;;;;;;;-2.17;100.00;94250.16;4925871;29;20028;-95
2022/03/06 03:00:42;;;;;;;42.67;14.98;;;;;;;-2.32;100.00;94252.84;4941801;29;20086;-95
2022/03/06 03:03:07;;;;;;;34.58;15.00;;;;;;;-2.30;100.00;94242.38;4957696;29;20027;-94
2022/03/06 03:05:33;;;;;;;50.33;15.55;;;;;;;-2.30;100.00;94247.50;4925836;29;20027;-95
2022/03/06 03:07:58;;;;;;;38.67;15.38;;;;;;;-2.27;100.00;94242.81;4925830;29;20433;-94
2022/03/06 03:10:25;;;;;;;37.20;15.63;;;;;;;-2.14;100.00;94242.09;4941635;29;20086;-95
2022/03/06 03:12:52;;;;;;;40.65;16.23;;;;;;;-2.25;100.00;94244.38;4926034;29;20429;-95
2022/03/06 03:15:18;;;;;;;37.03;15.38;;;;;;;-2.28;100.00;94246.34;4941712;29;20028;-95
2022/03/06 03:17:43;;;;;;;36.65;14.82;;;;;;;-2.25;100.00;94249.53;4926115;29;20035;-96
2022/03/06 03:20:11;;;;;;;38.95;15.40;;;;;;;-2.29;100.00;94244.00;4957373;29;20056;-94
2022/03/06 03:22:36;;;;;;;41.45;16.17;;;;;;;-2.34;100.00;94243.75;4941484;29;20031;-94
2022/03/06 03:25:03;;;;;;;40.17;15.45;;;;;;;-2.34;100.00;94241.19;4925611;29;20044;-94
2022/03/06 03:27:28;;;;;;;38.05;15.07;;;;;;;-2.36;100.00;94238.03;4925654;29;20043;-95
2022/03/06 03:29:54;;;;;;;45.80;16.63;;;;;;;-2.42;100.00;94240.38;4957449;29;20028;-95
2022/03/06 03:32:19;;;;;;;43.25;15.35;;;;;;;-2.37;100.00;94239.00;4941263;29;20063;-95
2022/03/06 03:34:45;;;;;;;39.95;16.25;;;;;;;-2.40;100.00;94245.28;4957147;29;20027;-94
2022/03/06 03:37:10;;;;;;;39.92;16.95;;;;;;;-2.47;100.00;94240.13;4925428;29;20035;-94
2022/03/06 03:39:36;;;;;;;40.28;15.80;;;;;;;-2.43;100.00;94243.91;4956961;29;20038;-94
2022/03/06 03:42:01;;;;;;;41.90;16.90;;;;;;;-2.43;100.00;94249.06;4941167;29;20091;-94
2022/03/06 03:44:27;;;;;;;41.20;16.40;;;;;;;-2.44;100.00;94247.47;4940981;29;20067;-94
2022/03/06 03:46:52;;;;;;;50.13;17.88;;;;;;;-2.42;100.00;94253.19;4925265;29;20032;-94
2022/03/06 03:49:18;;;;;;;42.50;16.98;;;;;;;-2.41;100.00;94246.28;4941020;29;20075;-95
2022/03/06 03:51:43;;;;;;;42.70;17.15;;;;;;;-2.28;100.00;94250.72;4956927;29;20032;-94
2022/03/06 03:54:09;;;;;;;48.17;16.73;;;;;;;-2.28;100.00;94248.16;4925215;29;20063;-94
2022/03/06 03:56:34;;;;;;;45.20;17.23;;;;;;;-2.28;100.00;94248.16;4940792;29;20059;-95
2022/03/06 03:59:00;;;;;;;46.35;17.15;;;;;;;-2.32;100.00;94254.63;4940925;29;20391;-95
2022/03/06 04:01:25;;;;;;;43.42;18.10;;;;;;;-2.30;100.00;94253.44;4956753;29;20035;-95
2022/03/06 04:03:51;;;;;;;52.72;18.02;;;;;;;-2.30;100.00;94252.66;4940738;29;20039;-95
2022/03/06 04:06:16;;;;;;;43.72;16.77;;;;;;;-2.36;100.00;94249.09;4939647;29;20032;-95
2022/03/06 04:08:42;;;;;;;45.70;17.95;;;;;;;-2.28;100.00;94246.34;4956627;29;20097;-95
2022/03/06 04:11:07;;;;;;;46.15;16.95;;;;;;;-2.30;100.00;94252.66;4956634;29;20091;-95
2022/03/06 04:13:33;;;;;;;46.38;17.52;;;;;;;-2.31;100.00;94240.81;4924670;29;20038;-95
2022/03/06 04:15:58;;;;;;;43.00;17.70;;;;;;;-2.32;100.00;94249.47;4924644;29;20063;-95
2022/03/06 04:21:45;;;;;;;39.78;16.60;;;;;;;-2.41;100.00;94256.53;4941391;29;20078;-94
2022/03/06 04:27:33;;;;;;;46.67;17.02;;;;;;;-2.34;100.00;94267.66;4941212;29;20078;-94
2022/03/06 04:30:06;;;;;;;43.85;17.35;;;;;;;-2.39;100.00;94264.84;4956364;29;20058;-94
2022/03/06 04:33:19;;;;;;;46.55;16.30;;;;;;;-2.45;100.00;94268.94;4924577;29;20049;-95
2022/03/06 04:35:35;;;;;;;45.83;17.42;;;;;;;-2.58;100.00;94266.34;4922495;29;20027;-94
2022/03/06 04:38:01;;;;;;;43.00;17.15;;;;;;;-2.51;100.00;94263.78;4940052;29;20095;-93
2022/03/06 04:40:27;;;;;;;40.88;16.67;;;;;;;-2.60;100.00;94258.81;4939949;29;20134;-95
2022/03/06 04:42:52;;;;;;;40.30;16.65;;;;;;;-2.70;100.00;94264.28;4955869;29;20070;-95
2022/03/06 04:45:18;;;;;;;39.50;16.70;;;;;;;-2.70;100.00;94259.16;4956077;29;20032;-94
2022/03/06 04:47:43;;;;;;;44.47;17.48;;;;;;;-2.68;100.00;94263.28;4940005;29;20032;-94
2022/03/06 04:50:09;;;;;;;47.78;17.35;;;;;;;-2.77;100.00;94263.41;4924309;29;20031;-95
2022/03/06 04:52:35;;;;;;;51.78;18.17;;;;;;;-2.64;100.00;94264.50;4924066;29;20348;-95
2022/03/06 04:55:00;;;;;;;47.33;18.38;;;;;;;-2.86;100.00;94262.00;4955921;29;20079;-95
2022/03/06 04:57:25;;;;;;;42.10;17.55;;;;;;;-2.88;100.00;94261.34;4939726;29;20039;-95
2022/03/06 04:59:51;;;;;;;49.60;17.92;;;;;;;-2.72;100.00;94263.69;4955580;29;20090;-96
2022/03/06 05:02:16;;;;;;;44.53;16.92;;;;;;;-2.66;100.00;94262.09;4939500;29;20039;-94
2022/03/06 05:04:42;;;;;;;45.58;18.13;;;;;;;-2.79;100.00;94262.03;4955805;29;20314;-94
2022/03/06 05:07:07;;;;;;;48.13;17.90;;;;;;;-2.79;100.00;94267.94;4923609;29;20039;-94
2022/03/06 05:09:33;;;;;;;47.58;17.58;;;;;;;-2.86;100.00;94270.47;4923847;29;20038;-94
2022/03/06 05:11:58;;;;;;;42.22;17.52;;;;;;;-2.85;100.00;94261.00;4923909;29;20036;-95
2022/03/06 05:14:24;;;;;;;41.50;17.83;;;;;;;-2.77;100.00;94267.78;4955510;29;20027;-94
2022/03/06 05:16:49;;;;;;;52.80;18.05;;;;;;;-2.71;100.00;94262.69;4955337;29;20126;-96
2022/03/06 05:19:15;;;;;;;46.40;18.38;;;;;;;-2.63;100.00;94269.44;4955102;29;20032;-94
2022/03/06 05:21:40;;;;;;;42.33;18.08;;;;;;;-2.54;100.00;94267.53;4923617;29;20058;-94
2022/03/06 05:24:06;;;;;;;43.92;17.80;;;;;;;-2.52;100.00;94272.47;4923530;29;20038;-95
2022/03/06 05:26:31;;;;;;;50.80;20.13;;;;;;;-2.46;100.00;94264.81;4923386;29;20035;-95
2022/03/06 05:28:57;;;;;;;48.38;19.52;;;;;;;-2.50;100.00;94270.53;4923761;29;20028;-94
2022/03/06 05:31:25;;;;;;;53.20;19.70;;;;;;;-2.44;100.00;94269.75;4955448;29;20032;-94
2022/03/06 05:33:51;;;;;;;54.58;19.85;;;;;;;-2.38;100.00;94271.56;4939506;29;20431;-94
2022/03/06 05:36:18;;;;;;;46.80;18.23;;;;;;;-2.53;100.00;94273.44;4955226;29;20051;-93
2022/03/06 05:42:06;;;;;;;48.75;19.20;;;;;;;-2.36;100.00;94279.88;4940110;29;20043;-94
2022/03/06 05:44:31;;;;;;;50.13;18.15;;;;;;;-2.36;100.00;94273.94;4939120;29;20035;-94
2022/03/06 05:46:56;;;;;;;48.35;19.27;;;;;;;-2.43;100.00;94279.03;4923463;29;20035;-95
2022/03/06 05:49:22;;;;;;;50.15;18.92;;;;;;;-2.35;100.00;94276.34;4939104;29;20452;-94
2022/03/06 05:51:48;;;;;;;45.85;19.45;;;;;;;-2.41;100.00;94274.50;4939117;29;20101;-95
2022/03/06 05:54:13;;;;;;;46.83;18.70;;;;;;;-2.38;100.00;94270.78;4939318;29;20083;-96
2022/03/06 05:56:39;;;;;;;45.15;18.40;;;;;;;-2.38;100.00;94275.91;4954699;29;20066;-94
2022/03/06 05:59:05;;;;;;;39.80;18.02;;;;;;;-2.31;100.00;94279.28;4939421;29;20031;-94
2022/03/06 06:01:31;;;;;;;46.55;18.08;;;;;;;-2.36;100.00;94274.75;4923206;29;20035;-94
2022/03/06 06:03:58;;;;;;;48.58;18.40;;;;;;;-2.33;100.00;94273.56;4939061;29;20038;-95
2022/03/06 06:06:24;;;;;;;47.65;18.88;;;;;;;-2.30;100.00;94273.19;4939473;29;20031;-95
2022/03/06 06:08:50;;;;;;;48.80;18.17;;;;;;;-2.29;100.00;94274.78;4923072;29;20027;-95
2022/03/06 06:11:16;;;;;;;47.67;18.17;;;;;;;-2.08;100.00;94276.47;4954886;29;20034;-94
2022/03/06 06:13:41;;;;;;;52.22;18.17;;;;;;;-2.21;100.00;94287.47;4923136;29;20138;-95
2022/03/06 06:16:07;;;;;;;51.30;19.38;;;;;;;-2.00;100.00;94284.00;4955474;29;20024;-95
2022/03/06 06:21:54;;;;;;;45.17;18.58;;;;;;;-1.85;100.00;94278.75;4939795;29;20515;-95
2022/03/06 06:24:20;;;;;;;42.65;18.33;;;;;;;-1.90;100.00;94288.78;4922964;29;20028;-93
2022/03/06 06:26:47;;;;;;;47.65;18.58;;;;;;;-1.85;100.00;94286.47;4954599;29;20126;-94
2022/03/06 06:29:13;;;;;;;48.00;19.05;;;;;;;-1.71;100.00;94295.00;4923309;29;20114;-95
2022/03/06 06:31:39;;;;;;;43.38;17.00;;;;;;;-1.61;100.00;94296.41;4958347;29;20032;-94
2022/03/06 06:34:04;;;;;;;49.58;19.15;;;;;;;-1.60;100.00;94296.22;4942073;29;20031;-93
2022/03/06 06:36:30;;;;;;;51.47;20.30;;;;;;;-1.51;100.00;94290.91;4958384;29;20516;-94
2022/03/06 06:38:55;;;;;;;42.72;18.40;;;;;;;-1.53;100.00;94285.94;4942611;29;20031;-94
2022/03/06 06:41:21;;;;;;;42.03;18.92;;;;;;;-1.36;100.00;94296.69;4958218;29;20232;-94
2022/03/06 06:43:47;;;;;;;48.00;20.15;;;;;;;-1.58;100.00;94289.13;4926733;29;20032;-94
2022/03/06 06:46:12;;;;;;;46.47;19.00;;;;;;;-1.58;100.00;94301.16;4925987;29;20032;-93
2022/03/06 06:48:38;;;;;;;49.90;19.15;;;;;;;-1.47;100.00;94304.94;4958101;29;20063;-92
2022/03/06 06:51:04;;;;;;;53.88;19.70;;;;;;;-1.45;100.00;94305.53;4926269;29;20122;-94
2022/03/06 06:53:30;;;;;;;44.63;18.60;;;;;;;-1.37;100.00;94310.53;4957955;29;20099;-93
2022/03/06 06:55:55;;;;;;;50.97;19.42;;;;;;;-1.24;100.00;94314.13;4925985;29;20027;-94
2022/03/06 06:58:21;;;;;;;43.30;18.33;;;;;;;-0.93;100.00;94313.59;4957835;29;20203;-92
2022/03/06 07:00:46;;;;;;;43.30;17.88;;;;;;;-0.91;100.00;94318.50;4925940;29;20032;-93
2022/03/06 07:03:12;;;;;;;43.65;19.08;;;;;;;-0.69;100.00;94315.78;4957746;29;20039;-93
2022/03/06 07:05:38;;;;;;;47.17;17.45;;;;;;;-0.51;100.00;94318.53;4957528;29;20027;-92
2022/03/06 07:08:04;;;;;;;50.03;18.63;;;;;;;-0.90;100.00;94320.91;4957277;29;20027;-93
2022/03/06 07:10:29;;;;;;;55.15;20.45;;;;;;;-0.75;100.00;94325.06;4957566;29;20035;-92
2022/03/06 07:12:55;;;;;;;47.60;18.75;;;;;;;-0.76;100.00;94323.47;4957532;29;20344;-93
2022/03/06 07:15:26;;;;;;;48.00;20.45;;;;;;;-0.67;100.00;94319.72;4957577;29;20024;-95
2022/03/06 07:17:51;;;;;;;46.70;18.33;;;;;;;-0.61;100.00;94318.13;4926171;29;20094;-93
2022/03/06 07:20:17;;;;;;;41.13;18.00;;;;;;;-0.57;100.00;94324.47;4925773;29;20039;-94
2022/03/06 07:22:42;;;;;;;42.28;17.73;;;;;;;-0.44;100.00;94314.16;4957624;29;20314;-94
2022/03/06 07:25:08;;;;;;;50.67;19.73;;;;;;;-0.42;100.00;94329.41;4957591;29;20471;-92
2022/03/06 07:27:34;;;;;;;37.83;17.15;;;;;;;-0.10;100.00;94324.41;4957143;29;20043;-92
2022/03/06 07:29:59;;;;;;;46.97;18.38;;;;;;;-0.23;100.00;94325.25;4941434;29;20086;-93
2022/03/06 07:32:25;;;;;;;45.35;18.65;;;;;;;0.03;100.00;94326.19;4957292;29;20032;-94
2022/03/06 07:34:50;;;;;;;41.35;17.35;;;;;;;-0.22;100.00;94326.81;4909602;29;20038;-95
2022/03/06 07:37:16;;;;;;;44.25;18.02;;;;;;;0.06;100.00;94327.56;4957454;29;20032;-93
2022/03/06 07:39:42;;;;;;;42.38;17.60;;;;;;;0.10;100.00;94328.75;4941227;29;20103;-93
2022/03/06 07:42:07;;;;;;;44.55;17.50;;;;;;;0.35;100.00;94322.91;4925378;29;20035;-91
2022/03/06 07:44:33;;;;;;;42.58;16.45;;;;;;;0.68;100.00;94327.16;4941878;29;20080;-94
2022/03/06 07:46:58;;;;;;;41.15;16.33;;;;;;;0.83;100.00;94332.81;4957032;28;20026;-95
2022/03/06 07:49:24;;;;;;;39.30;16.08;;;;;;;0.98;100.00;94322.19;4957140;29;20030;-95
2022/03/06 07:51:49;;;;;;;35.25;14.45;;;;;;;1.15;100.00;94324.31;4956972;29;20027;-94
2022/03/06 07:54:15;;;;;;;37.65;16.88;;;;;;;1.06;100.00;94334.06;4941011;29;20035;-94
2022/03/06 07:56:41;;;;;;;47.13;16.55;;;;;;;1.33;100.00;94333.13;4956810;29;20118;-94
2022/03/06 07:59:07;;;;;;;36.72;15.98;;;;;;;1.11;100.00;94331.66;4940980;29;20023;-95
2022/03/06 08:01:32;;;;;;;44.58;14.95;;;;;;;0.89;100.00;94333.78;4924868;29;20119;-93
2022/03/06 08:03:58;;;;;;;41.10;16.33;;;;;;;0.89;100.00;94326.06;4956648;29;20028;-94
2022/03/06 08:06:23;;;;;;;37.75;16.23;;;;;;;0.57;100.00;94338.88;4956733;29;20028;-94
2022/03/06 08:08:49;;;;;;;53.72;16.23;;;;;;;0.62;100.00;94336.50;4956750;29;20063;-96
2022/03/06 08:11:14;;;;;;;32.20;14.75;;;;;;;0.45;100.00;94330.22;4924886;29;20036;-94
2022/03/06 08:13:40;;;;;;;40.95;16.10;;;;;;;0.73;100.00;94331.69;4956673;29;20035;-95
2022/03/06 08:16:05;;;;;;;32.78;15.35;;;;;;;0.88;100.00;94332.22;4956488;29;20091;-94
2022/03/06 08:18:31;;;;;;;42.35;16.23;;;;;;;1.26;100.00;94328.78;4956505;29;20333;-94
2022/03/06 08:20:57;;;;;;;38.85;15.88;;;;;;;1.56;100.00;94327.38;4956640;29;20035;-94
2022/03/06 08:23:22;;;;;;;36.83;15.63;;;;;;;2.06;100.00;94329.13;4956216;29;20043;-95
2022/03/06 08:25:47;;;;;;;38.33;14.85;;;;;;;1.90;100.00;94327.09;4956157;29;20055;-95
2022/03/06 08:28:13;;;;;;;34.92;15.77;;;;;;;1.60;100.00;94325.16;4924756;29;20035;-94
2022/03/06 08:30:39;;;;;;;31.42;14.20;;;;;;;1.42;100.00;94326.69;4956500;29;20032;-94
2022/03/06 08:33:04;;;;;;;33.72;14.05;;;;;;;2.03;100.00;94328.75;4956010;29;20353;-94
2022/03/06 08:35:30;;;;;;;34.53;14.13;;;;;;;2.36;100.00;94325.00;4940157;29;20460;-94
2022/03/06 08:37:55;;;;;;;35.40;14.75;;;;;;;2.68;100.00;94327.44;4956312;29;20035;-95
2022/03/06 08:40:22;;;;;;;33.85;13.93;;;;;;;2.32;100.00;94326.44;4924312;29;20042;-95
2022/03/06 08:42:48;;;;;;;33.13;14.30;;;;;;;2.38;100.00;94321.22;4956048;29;20148;-96
2022/03/06 08:45:14;;;;;;;32.45;14.13;;;;;;;2.56;100.00;94329.94;4956066;29;20122;-95
2022/03/06 08:47:39;;;;;;;32.97;14.45;;;;;;;2.03;98.05;94326.97;4924043;29;20035;-94
2022/03/06 08:50:05;;;;;;;30.70;13.38;;;;;;;2.05;100.00;94324.94;4955762;29;20035;-95
2022/03/06 08:52:31;;;;;;;32.40;13.70;;;;;;;1.80;100.00;94310.28;4955258;28;20037;-95
2022/03/06 08:54:56;;;;;;;36.33;14.07;;;;;;;2.52;100.00;94318.47;4923882;29;20027;-95
2022/03/06 08:57:23;;;;;;;32.42;13.85;;;;;;;2.66;94.99;94319.88;4923873;29;20058;-95
2022/03/06 08:59:49;;;;;;;36.58;14.52;;;;;;;2.81;99.49;94321.28;4924413;29;20038;-94
2022/03/06 09:02:15;;;;;;;34.83;14.02;;;;;;;3.19;93.08;94315.00;4955826;29;20334;-95
2022/03/06 09:04:40;;;;;;;40.85;14.43;;;;;;;3.00;97.85;94319.44;4955551;29;20086;-96
2022/03/06 09:07:06;;;;;;;33.78;14.23;;;;;;;2.97;92.95;94323.25;4955515;29;20079;-95
2022/03/06 09:09:31;;;;;;;31.52;13.85;;;;;;;2.37;96.94;94322.22;4924019;29;20038;-94
2022/03/06 09:11:58;;;;;;;31.67;13.45;;;;;;;2.10;100.00;94319.91;4955788;29;20031;-95
2022/03/06 09:14:23;;;;;;;33.88;14.27;;;;;;;1.93;100.00;94322.25;4939676;29;20032;-94
2022/03/06 09:16:49;;;;;;;37.67;15.27;;;;;;;1.68;100.00;94325.69;4955545;29;20123;-94
2022/03/06 09:22:37;;;;;;;39.38;15.20;;;;;;;2.67;100.00;94318.88;4940188;29;20083;-95
2022/03/06 09:25:06;;;;;;;33.83;14.65;;;;;;;2.88;100.00;94323.78;4955144;29;20505;-93
2022/03/06 09:27:31;;;;;;;29.60;13.65;;;;;;;3.24;100.00;94309.94;4935829;29;20031;-94
2022/03/06 09:29:57;;;;;;;34.25;14.57;;;;;;;3.41;95.98;94313.69;4931602;29;20131;-94
2022/03/06 09:32:22;;;;;;;33.95;14.20;;;;;;;3.27;93.33;94318.28;4930167;29;20031;-94
2022/03/06 09:34:47;;;;;;;37.05;14.32;;;;;;;3.38;91.13;94320.09;4955123;29;20034;-94
2022/03/06 09:37:14;;;;;;;52.60;15.05;;;;;;;3.43;100.00;94320.22;4939355;29;20039;-94
2022/03/06 09:39:40;;;;;;;30.77;13.43;;;;;;;3.25;90.27;94316.69;4954933;29;20023;-96
2022/03/06 09:42:05;;;;;;;33.92;13.63;;;;;;;4.09;92.15;94320.13;4955264;29;20031;-93
2022/03/06 09:44:32;;;;;;;33.55;13.48;;;;;;;3.90;88.40;94324.66;4923331;29;20035;-94
2022/03/06 09:46:58;;;;;;;33.30;13.23;;;;;;;3.89;82.75;94320.47;4955067;29;20027;-95
2022/03/06 09:49:24;;;;;;;34.22;13.10;;;;;;;4.36;83.86;94327.44;4923234;29;20433;-94
2022/03/06 09:51:49;;;;;;;30.38;12.57;;;;;;;3.86;83.33;94320.13;4923175;29;20027;-95
2022/03/06 09:54:16;;;;;;;30.67;13.02;;;;;;;4.54;76.57;94333.47;4955092;29;20027;-95
2022/03/06 09:56:42;;;;;;;27.13;12.52;;;;;;;3.38;84.94;94325.28;4939571;29;20428;-94
2022/03/06 09:59:08;;;;;;;26.95;13.07;;;;;;;3.85;84.77;94318.56;4923146;29;20468;-95
2022/03/06 10:01:33;;;;;;;30.25;12.95;;;;;;;4.03;77.74;94326.22;4954927;29;20028;-94
2022/03/06 10:04:20;;;;;;;28.30;13.63;;;;;;;4.33;76.15;94327.09;4956237;28;20059;-94
2022/03/06 10:07:06;;;;;;;30.45;13.15;;;;;;;3.63;76.85;94327.69;4927085;29;20035;-94
2022/03/06 10:09:34;;;;;;;32.00;12.63;;;;;;;3.82;72.41;94330.97;4927298;29;20035;-94
2022/03/06 10:11:59;;;;;;;31.33;13.35;;;;;;;3.94;70.02;94325.75;4926810;29;20051;-93
2022/03/06 10:14:41;;;;;;;31.98;13.40;;;;;;;3.63;84.05;94326.91;4942931;29;20031;-93
2022/03/06 10:17:16;;;;;;;30.48;13.05;;;;;;;3.57;75.46;94330.38;4958759;29;20046;-94
2022/03/06 10:19:55;;;;;;;33.67;13.68;;;;;;;3.61;73.60;94326.34;4926750;29;20429;-94
2022/03/06 10:22:26;;;;;;;34.22;13.18;;;;;;;3.23;69.51;94330.91;4926583;29;20035;-93
2022/03/06 10:24:57;;;;;;;32.97;12.98;;;;;;;3.18;72.87;94320.41;4927010;29;20102;-93
2022/03/06 10:27:48;;;;;;;32.28;14.40;;;;;;;3.39;75.06;94314.72;4926756;29;20038;-94
2022/03/06 10:30:29;;;;;;;36.08;14.27;;;;;;;3.04;76.03;94325.00;4942669;29;20345;-93
2022/03/06 10:32:56;;;;;;;34.50;14.93;;;;;;;3.17;78.96;94318.81;4959237;29;20030;-94
2022/03/06 10:35:31;;;;;;;37.15;13.98;;;;;;;3.12;79.67;94322.06;4961875;29;20031;-93
2022/03/06 10:37:58;;;;;;;31.27;13.60;;;;;;;4.04;76.12;94312.25;4961577;29;20032;-95
2022/03/06 10:40:34;;;;;;;26.83;12.35;;;;;;;4.77;69.66;94308.47;4945259;29;20471;-93
2022/03/06 10:42:59;;;;;;;30.83;13.68;;;;;;;4.86;73.33;94317.44;4946125;29;20038;-94
2022/03/06 10:45:25;;;;;;;29.92;13.18;;;;;;;4.14;70.62;94314.28;4961249;29;20429;-93
2022/03/06 10:47:50;;;;;;;29.20;13.88;;;;;;;3.65;71.80;94322.28;4944581;29;20535;-93
2022/03/06 10:50:25;;;;;;;26.38;12.48;;;;;;;3.48;64.91;94328.13;4928640;29;20031;-92
2022/03/06 10:52:53;;;;;;;26.55;11.52;;;;;;;3.68;65.57;94329.59;4944872;29;20031;-93
2022/03/06 10:55:32;;;;;;;30.65;13.65;;;;;;;3.43;68.87;94316.84;4976621;28;20436;-93
2022/03/06 10:57:57;;;;;;;23.20;11.15;;;;;;;3.77;63.07;94317.09;4944907;29;20034;-92
2022/03/06 11:00:23;;;;;;;32.40;13.13;;;;;;;4.07;65.12;94308.41;4944382;29;20027;-93
2022/03/06 11:02:49;;;;;;;32.05;12.95;;;;;;;3.31;65.29;94309.84;4977191;28;20114;-93
2022/03/06 11:05:15;;;;;;;33.90;14.07;;;;;;;4.06;65.99;94312.81;4960793;29;20038;-92
2022/03/06 11:07:41;;;;;;;24.55;12.35;;;;;;;4.29;64.13;94308.59;4961580;29;20082;-92
2022/03/06 11:10:07;;;;;;;33.33;14.23;;;;;;;3.65;65.45;94312.69;4976605;28;20028;-91
2022/03/06 11:12:33;;;;;;;24.42;11.13;;;;;;;2.61;64.08;94311.19;4976656;28;20035;-92
2022/03/06 11:14:59;;;;;;;25.42;11.55;;;;;;;2.74;69.46;94307.66;4943765;28;20114;-92
2022/03/06 11:17:26;;;;;;;31.13;14.13;;;;;;;2.59;66.03;94303.66;4943868;29;20034;-92
2022/03/06 11:19:52;;;;;;;31.35;13.57;;;;;;;3.18;67.87;94300.50;4944476;29;20336;-92
2022/03/06 11:22:24;;;;;;;30.45;13.40;;;;;;;4.01;67.45;94299.72;4944625;29;20023;-92
2022/03/06 11:24:57;;;;;;;27.75;13.57;;;;;;;3.63;65.69;94286.22;4960720;29;20096;-92
2022/03/06 11:27:49;;;;;;;30.13;13.05;;;;;;;3.70;64.76;94290.53;4960200;29;20141;-91
2022/03/06 11:30:20;;;;;;;30.88;14.43;;;;;;;3.40;67.14;94289.59;4935735;29;20352;-92
2022/03/06 11:32:58;;;;;;;39.63;15.43;;;;;;;3.11;69.87;94285.06;4933244;29;20031;-92
2022/03/06 11:35:41;;;;;;;33.40;14.98;;;;;;;2.88;72.68;94274.63;4944244;29;20110;-94
2022/03/06 11:38:08;;;;;;;29.70;14.75;;;;;;;2.66;73.16;94281.09;4909270;29;20437;-93
2022/03/06 11:40:37;;;;;;;30.27;13.85;;;;;;;2.65;74.00;94270.94;4940504;29;20419;-91
2022/03/06 11:43:03;;;;;;;36.65;15.07;;;;;;;2.43;74.98;94278.38;4941984;29;20055;-92
2022/03/06 11:45:46;;;;;;;31.10;13.98;;;;;;;2.34;76.20;94275.31;4940754;29;20079;-92
2022/03/06 11:48:27;;;;;;;30.52;14.13;;;;;;;2.53;75.81;94276.06;4924817;29;20046;-92
2022/03/06 11:51:14;;;;;;;33.47;14.65;;;;;;;2.66;79.32;94269.97;4941378;29;20035;-94
2022/03/06 11:54:01;;;;;;;31.50;13.80;;;;;;;2.58;77.87;94267.66;4945348;29;20507;-92
2022/03/06 11:56:30;;;;;;;29.80;14.20;;;;;;;2.76;74.46;94272.00;4961066;29;20024;-93
2022/03/06 11:59:25;;;;;;;33.67;13.52;;;;;;;3.25;72.28;94264.13;4959796;29;20031;-93
2022/03/06 12:01:54;;;;;;;38.10;14.60;;;;;;;3.23;73.35;94256.59;4949138;28;20194;-93
2022/03/06 12:04:33;;;;;;;30.40;13.82;;;;;;;2.78;74.04;94265.59;4921552;29;20032;-92
2022/03/06 12:07:01;;;;;;;32.75;13.75;;;;;;;2.84;74.41;94266.50;4905675;29;20024;-94
2022/03/06 12:09:38;;;;;;;30.17;14.00;;;;;;;2.54;74.58;94254.38;4937315;29;20123;-92
2022/03/06 12:12:09;;;;;;;29.38;13.93;;;;;;;2.34;75.26;94259.78;4922273;29;20354;-93
2022/03/06 12:14:37;;;;;;;29.05;12.80;;;;;;;2.24;78.22;94249.97;4927262;29;20031;-94
2022/03/06 12:17:03;;;;;;;31.70;13.15;;;;;;;2.56;73.68;94251.59;4959484;29;20029;-91
2022/03/06 12:19:35;;;;;;;344.33;124.28;;;;;;;2.81;75.15;94248.84;4960322;29;20031;-90
2022/03/06 12:22:21;;;;;;;38.45;15.63;;;;;;;2.42;72.12;94236.25;4942865;29;20027;-92
2022/03/06 12:25:06;;;;;;;32.80;12.48;;;;;;;2.62;70.72;94241.16;4943342;29;20117;-91
2022/03/06 12:27:33;;;;;;;34.15;13.45;;;;;;;2.71;71.59;94244.22;4951919;28;20043;-91
2022/03/06 12:30:01;;;;;;;28.30;13.60;;;;;;;3.05;71.42;94235.97;4958016;29;20039;-92
2022/03/06 12:32:29;;;;;;;30.90;13.20;;;;;;;2.88;70.48;94231.44;4943066;29;20062;-90
2022/03/06 12:35:12;;;;;;;25.75;13.15;;;;;;;2.59;71.98;94226.06;4958798;29;20034;-91
2022/03/06 12:37:40;;;;;;;27.00;12.25;;;;;;;2.88;71.71;94230.63;4942613;29;20027;-91
2022/03/06 12:40:11;;;;;;;33.90;12.77;;;;;;;2.90;73.82;94229.41;4942237;29;20023;-93
2022/03/06 12:42:38;;;;;;;30.67;13.43;;;;;;;2.96;72.19;94231.09;4958905;29;20031;-90
2022/03/06 12:45:09;;;;;;;38.03;18.05;;;;;;;2.80;71.27;94218.81;4958573;29;20027;-92
2022/03/06 12:47:35;;;;;;;32.45;12.13;;;;;;;2.65;68.78;94220.00;4942846;29;20027;-92
2022/03/06 12:50:01;;;;;;;29.02;12.68;;;;;;;2.48;70.07;94216.47;4942044;29;20365;-92
2022/03/06 12:52:28;;;;;;;32.42;12.88;;;;;;;2.57;70.19;94220.31;4943110;29;20027;-93
2022/03/06 12:54:55;;;;;;;24.63;12.05;;;;;;;2.87;68.17;94210.94;4959160;29;20385;-94
2022/03/06 12:57:28;;;;;;;24.23;11.98;;;;;;;3.35;64.60;94214.38;4942874;29;20023;-93
2022/03/06 12:59:54;;;;;;;;;;;;;;;3.64;64.74;94214.47;4943425;29;20117;-94
2022/03/06 13:02:21;;;;;;;27.85;11.88;;;;;;;3.48;63.98;94211.56;4958955;29;19945;-94
2022/03/06 13:04:51;;;;;;;27.52;12.63;;;;;;;3.46;63.48;94197.25;4958794;29;20039;-94
2022/03/06 13:07:28;;;;;;;49.25;21.80;;;;;;;3.84;65.22;94208.13;4957899;29;20113;-93
2022/03/06 13:10:03;;;;;;;21.52;11.02;;;;;;;3.51;60.04;94194.75;4942945;29;20027;-94
2022/03/06 13:12:36;;;;;;;22.38;10.40;;;;;;;3.29;60.65;94186.78;4958720;29;20330;-93
2022/03/06 13:15:02;;;;;;;;;;;;;;;2.39;62.19;94206.44;4927507;29;20094;-93
2022/03/06 13:17:35;;;;;;;24.63;10.85;;;;;;;2.36;62.66;94195.72;4958379;29;19993;-94
2022/03/06 13:20:01;;;;;;;23.55;9.95;;;;;;;2.34;62.66;94203.72;4942741;29;20441;-92
2022/03/06 13:22:29;;;;;;;21.10;9.65;;;;;;;2.24;62.31;94196.50;4958933;29;20031;-92
2022/03/06 13:24:57;;;;;;;22.17;10.65;;;;;;;2.31;62.63;94195.59;4958403;29;20533;-92
2022/03/06 13:27:39;;;;;;;22.73;11.07;;;;;;;2.53;62.65;94196.69;4958261;29;20062;-93
2022/03/06 13:30:15;;;;;;;22.38;11.25;;;;;;;2.64;62.00;94207.28;4958528;29;20060;-92
2022/03/06 13:32:53;;;;;;;25.00;12.45;;;;;;;2.99;63.00;94185.06;4958548;29;20031;-92
2022/03/06 13:35:39;;;;;;;19.40;8.48;;;;;;;3.04;58.52;94195.56;4942222;29;20114;-92
2022/03/06 13:38:11;;;;;;;21.50;9.85;;;;;;;3.23;61.90;94193.66;4957578;28;20109;-92
2022/03/06 13:40:39;;;;;;;17.95;8.23;;;;;;;3.90;56.76;94197.63;4958321;29;20031;-92
2022/03/06 13:43:05;;;;;;;18.92;8.82;;;;;;;3.78;55.05;94182.13;4958156;29;20117;-93
2022/03/06 13:45:30;;;;;;;20.48;9.90;;;;;;;2.58;55.99;94183.09;4942293;29;20343;-93
2022/03/06 13:52:06;;;;;;;23.90;8.25;;;;;;;3.11;56.00;94193.66;4959007;29;20090;-92
2022/03/06 13:54:33;;;;;;;15.85;8.15;;;;;;;2.78;55.03;94184.59;4942062;29;20349;-93
2022/03/06 13:56:58;;;;;;;18.58;8.38;;;;;;;2.86;55.93;94189.44;4942505;29;20055;-93
2022/03/06 13:59:28;;;;;;;15.95;8.20;;;;;;;2.85;56.92;94185.28;4942122;29;20077;-94
2022/03/06 14:02:03;;;;;;;25.10;8.93;;;;;;;2.72;55.99;94190.66;4942114;29;20078;-93
2022/03/06 14:04:29;;;;;;;21.05;8.68;;;;;;;2.95;58.53;94189.94;4942436;29;20031;-94
2022/03/06 14:07:02;;;;;;;21.63;9.18;;;;;;;3.48;56.46;94192.63;4942080;29;20360;-92